createdAt,value
2022-09-25T00:00:57.922Z,100.00
2022-09-25T00:03:27.530Z,100.00
2022-09-25T00:06:19.751Z,100.00
2022-09-25T00:08:46.688Z,100.00
2022-09-25T00:11:24.003Z,100.00
2022-09-25T00:13:51.411Z,100.00
2022-09-25T00:16:24.472Z,100.00
2022-09-25T00:19:10.156Z,100.00
2022-09-25T00:21:37.954Z,100.00
2022-09-25T00:24:08.233Z,100.00
2022-09-25T00:26:38.618Z,100.00
2022-09-25T00:29:06.969Z,100.00
2022-09-25T00:31:34.121Z,100.00
2022-09-25T00:34:03.289Z,100.00
2022-09-25T00:36:31.664Z,100.00
2022-09-25T00:38:58.798Z,100.00
2022-09-25T00:41:27.744Z,100.00
2022-09-25T00:43:56.664Z,100.00
2022-09-25T00:46:34.815Z,100.00
2022-09-25T00:49:20.514Z,100.00
2022-09-25T00:51:59.662Z,100.00
2022-09-25T00:54:31.567Z,100.00
2022-09-25T00:57:03.025Z,100.00
2022-09-25T00:59:36.531Z,100.00
2022-09-25T01:02:03.186Z,100.00
2022-09-25T01:04:34.667Z,100.00
2022-09-25T01:07:01.798Z,100.00
2022-09-25T01:09:28.918Z,100.00
2022-09-25T01:11:55.745Z,100.00
2022-09-25T01:14:22.659Z,100.00
2022-09-25T01:17:21.401Z,100.00
2022-09-25T01:20:30.435Z,100.00
2022-09-25T01:23:32.673Z,100.00
2022-09-25T01:26:31.313Z,100.00
2022-09-25T01:29:07.136Z,100.00
2022-09-25T01:32:07.787Z,100.00
2022-09-25T01:35:04.627Z,100.00
2022-09-25T01:38:22.070Z,100.00
2022-09-25T01:41:02.122Z,100.00
2022-09-25T01:43:37.079Z,100.00
2022-09-25T01:46:24.778Z,100.00
2022-09-25T01:49:00.308Z,100.00
2022-09-25T01:51:32.370Z,100.00
2022-09-25T01:54:07.540Z,100.00
2022-09-25T01:56:40.212Z,100.00
2022-09-25T01:59:12.834Z,100.00
2022-09-25T02:01:45.126Z,100.00
2022-09-25T02:04:21.953Z,100.00
2022-09-25T02:06:51.046Z,100.00
2022-09-25T02:09:39.278Z,100.00
2022-09-25T02:12:14.461Z,100.00
2022-09-25T02:14:49.278Z,100.00
2022-09-25T02:17:59.307Z,100.00
2022-09-25T02:20:32.567Z,100.00
2022-09-25T02:23:17.940Z,100.00
2022-09-25T02:25:49.862Z,100.00
2022-09-25T02:28:16.718Z,100.00
2022-09-25T02:30:47.095Z,100.00
2022-09-25T02:33:13.737Z,100.00
2022-09-25T02:35:40.342Z,100.00
2022-09-25T02:38:07.056Z,100.00
2022-09-25T02:40:49.781Z,100.00
2022-09-25T02:43:55.504Z,100.00
2022-09-25T02:46:57.443Z,100.00
2022-09-25T02:49:44.866Z,100.00
2022-09-25T02:52:17.987Z,100.00
2022-09-25T02:54:51.876Z,100.00
2022-09-25T02:57:42.552Z,100.00
2022-09-25T03:00:10.771Z,100.00
2022-09-25T03:02:39.365Z,100.00
2022-09-25T03:05:10.219Z,100.00
2022-09-25T03:07:57.660Z,100.00
2022-09-25T03:10:25.408Z,100.00
2022-09-25T03:12:51.985Z,100.00
2022-09-25T03:15:19.231Z,100.00
2022-09-25T03:17:48.202Z,100.00
2022-09-25T03:20:15.100Z,100.00
2022-09-25T03:22:41.754Z,100.00
2022-09-25T03:25:08.581Z,100.00
2022-09-25T03:27:35.183Z,100.00
2022-09-25T03:30:03.016Z,100.00
2022-09-25T03:32:29.583Z,100.00
2022-09-25T03:34:56.363Z,100.00
2022-09-25T03:37:25.179Z,100.00
2022-09-25T03:39:51.809Z,100.00
2022-09-25T03:42:19.532Z,100.00
2022-09-25T03:44:46.425Z,100.00
2022-09-25T03:47:13.219Z,100.00
2022-09-25T03:49:39.973Z,100.00
2022-09-25T03:52:06.780Z,100.00
2022-09-25T03:54:33.395Z,100.00
2022-09-25T03:57:00.004Z,100.00
2022-09-25T03:59:26.920Z,100.00
2022-09-25T04:01:54.204Z,100.00
2022-09-25T04:04:21.204Z,100.00
2022-09-25T04:06:47.859Z,100.00
2022-09-25T04:09:14.456Z,100.00
2022-09-25T04:11:41.233Z,100.00
2022-09-25T04:14:08.007Z,100.00
2022-09-25T04:16:34.825Z,100.00
2022-09-25T04:19:01.462Z,100.00
2022-09-25T04:21:28.046Z,100.00
2022-09-25T04:24:13.259Z,100.00
2022-09-25T04:26:40.151Z,100.00
2022-09-25T04:29:06.990Z,100.00
2022-09-25T04:31:33.793Z,100.00
2022-09-25T04:34:00.438Z,100.00
2022-09-25T04:36:27.067Z,100.00
2022-09-25T04:38:53.782Z,100.00
2022-09-25T04:41:20.453Z,100.00
2022-09-25T04:43:47.478Z,100.00
2022-09-25T04:46:20.978Z,100.00
2022-09-25T04:48:48.426Z,100.00
2022-09-25T04:51:15.299Z,100.00
2022-09-25T04:53:42.869Z,100.00
2022-09-25T04:56:15.376Z,100.00
2022-09-25T04:58:47.998Z,100.00
2022-09-25T05:01:16.055Z,100.00
2022-09-25T05:03:43.084Z,100.00
2022-09-25T05:06:09.979Z,100.00
2022-09-25T05:08:36.540Z,100.00
2022-09-25T05:11:03.934Z,100.00
2022-09-25T05:13:30.769Z,100.00
2022-09-25T05:15:58.049Z,100.00
2022-09-25T05:18:25.544Z,100.00
2022-09-25T05:20:56.624Z,100.00
2022-09-25T05:23:24.081Z,100.00
2022-09-25T05:25:55.296Z,100.00
2022-09-25T05:28:23.547Z,100.00
2022-09-25T05:30:50.593Z,100.00
2022-09-25T05:33:19.027Z,100.00
2022-09-25T05:35:45.816Z,100.00
2022-09-25T05:38:12.490Z,100.00
2022-09-25T05:40:39.287Z,100.00
2022-09-25T05:43:06.491Z,100.00
2022-09-25T05:45:34.495Z,100.00
2022-09-25T05:48:02.847Z,100.00
2022-09-25T05:50:29.734Z,100.00
2022-09-25T05:52:57.494Z,100.00
2022-09-25T05:55:24.869Z,100.00
2022-09-25T05:57:51.635Z,100.00
2022-09-25T06:00:18.940Z,100.00
2022-09-25T06:02:45.981Z,100.00
2022-09-25T06:05:12.615Z,100.00
2022-09-25T06:07:39.202Z,100.00
2022-09-25T06:10:06.482Z,100.00
2022-09-25T06:12:33.068Z,100.00
2022-09-25T06:14:59.836Z,100.00
2022-09-25T06:17:26.556Z,100.00
2022-09-25T06:19:53.195Z,100.00
2022-09-25T06:22:19.773Z,100.00
2022-09-25T06:24:48.669Z,100.00
2022-09-25T06:27:15.325Z,100.00
2022-09-25T06:29:41.893Z,100.00
2022-09-25T06:32:08.507Z,100.00
2022-09-25T06:34:35.109Z,100.00
2022-09-25T06:37:01.692Z,100.00
2022-09-25T06:39:28.411Z,100.00
2022-09-25T06:41:55.053Z,100.00
2022-09-25T06:44:22.515Z,100.00
2022-09-25T06:46:54.506Z,100.00
2022-09-25T06:49:21.868Z,100.00
2022-09-25T06:51:50.989Z,100.00
2022-09-25T06:54:17.997Z,100.00
2022-09-25T06:56:48.258Z,100.00
2022-09-25T06:59:14.834Z,100.00
2022-09-25T07:01:41.534Z,100.00
2022-09-25T07:04:08.273Z,100.00
2022-09-25T07:06:37.314Z,100.00
2022-09-25T07:09:04.097Z,100.00
2022-09-25T07:11:31.443Z,100.00
2022-09-25T07:13:58.515Z,100.00
2022-09-25T07:16:30.093Z,100.00
2022-09-25T07:19:00.568Z,100.00
2022-09-25T07:21:30.517Z,100.00
2022-09-25T07:23:58.294Z,100.00
2022-09-25T07:26:28.758Z,100.00
2022-09-25T07:29:04.121Z,100.00
2022-09-25T07:31:33.151Z,100.00
2022-09-25T07:34:05.794Z,100.00
2022-09-25T07:36:33.045Z,100.00
2022-09-25T07:38:59.790Z,100.00
2022-09-25T07:41:27.015Z,100.00
2022-09-25T07:46:46.129Z,100.00
2022-09-25T07:49:13.610Z,100.00
2022-09-25T07:51:40.367Z,100.00
2022-09-25T07:54:07.301Z,99.04
2022-09-25T07:56:38.387Z,99.95
2022-09-25T07:59:05.418Z,99.38
2022-09-25T08:01:32.284Z,100.00
2022-09-25T08:03:59.302Z,99.82
2022-09-25T08:06:25.952Z,100.00
2022-09-25T08:08:52.525Z,99.38
2022-09-25T08:11:19.475Z,97.84
2022-09-25T08:13:46.721Z,97.42
2022-09-25T08:16:16.180Z,98.89
2022-09-25T08:18:48.392Z,99.48
2022-09-25T08:21:17.847Z,97.53
2022-09-25T08:23:49.447Z,98.31
2022-09-25T08:26:16.782Z,98.08
2022-09-25T08:28:44.160Z,98.33
2022-09-25T08:31:11.173Z,98.09
2022-09-25T08:33:37.957Z,98.11
2022-09-25T08:36:08.597Z,98.32
2022-09-25T08:38:35.755Z,98.02
2022-09-25T08:41:11.381Z,96.46
2022-09-25T08:43:43.565Z,97.13
2022-09-25T08:46:42.722Z,96.98
2022-09-25T08:49:12.294Z,96.54
2022-09-25T08:51:49.115Z,95.69
2022-09-25T08:54:27.855Z,94.58
2022-09-25T08:56:59.239Z,93.88
2022-09-25T08:59:31.865Z,94.29
2022-09-25T09:02:11.592Z,93.02
2022-09-25T09:04:51.836Z,92.49
2022-09-25T09:07:35.671Z,92.35
2022-09-25T09:10:41.270Z,91.80
2022-09-25T09:13:37.650Z,92.21
2022-09-25T09:16:10.501Z,92.02
2022-09-25T09:18:42.973Z,92.12
2022-09-25T09:21:13.496Z,91.48
2022-09-25T09:24:06.951Z,91.27
2022-09-25T09:26:50.093Z,91.07
2022-09-25T09:30:00.291Z,91.24
2022-09-25T09:33:02.030Z,88.54
2022-09-25T09:36:13.587Z,89.03
2022-09-25T09:39:07.494Z,88.38
2022-09-25T09:42:02.242Z,86.40
2022-09-25T09:45:16.326Z,85.67
2022-09-25T09:48:01.850Z,86.46
2022-09-25T09:50:52.816Z,86.43
2022-09-25T09:53:46.451Z,86.35
2022-09-25T09:56:27.609Z,85.88
2022-09-25T09:59:00.718Z,85.19
2022-09-25T10:01:42.021Z,84.96
2022-09-25T10:04:23.067Z,85.14
2022-09-25T10:07:05.042Z,83.54
2022-09-25T10:09:32.260Z,85.46
2022-09-25T10:12:08.026Z,85.59
2022-09-25T10:14:41.093Z,85.86
2022-09-25T10:17:11.465Z,86.02
2022-09-25T10:19:48.177Z,86.24
2022-09-25T10:22:21.411Z,86.93
2022-09-25T10:24:58.536Z,87.33
2022-09-25T10:27:48.984Z,85.53
2022-09-25T10:30:20.319Z,85.06
2022-09-25T10:33:00.875Z,84.90
2022-09-25T10:35:51.103Z,84.14
2022-09-25T10:38:45.238Z,85.12
2022-09-25T10:41:13.751Z,83.38
2022-09-25T10:44:00.197Z,84.82
2022-09-25T10:46:53.591Z,83.58
2022-09-25T10:49:46.993Z,84.43
2022-09-25T10:52:16.273Z,84.42
2022-09-25T10:54:45.572Z,82.65
2022-09-25T10:57:35.318Z,82.09
2022-09-25T11:00:07.501Z,82.16
2022-09-25T11:02:40.173Z,82.75
2022-09-25T11:05:15.700Z,82.94
2022-09-25T11:07:52.424Z,81.38
2022-09-25T11:10:21.667Z,80.39
2022-09-25T11:12:48.483Z,80.69
2022-09-25T11:15:20.949Z,80.77
2022-09-25T11:17:52.216Z,82.28
2022-09-25T11:20:30.692Z,80.98
2022-09-25T11:23:20.764Z,81.17
2022-09-25T11:26:17.711Z,80.11
2022-09-25T11:29:27.030Z,78.97
2022-09-25T11:32:06.496Z,78.12
2022-09-25T11:35:14.627Z,80.72
2022-09-25T11:38:02.542Z,79.33
2022-09-25T11:41:12.306Z,79.00
2022-09-25T11:44:08.476Z,78.76
2022-09-25T11:46:57.283Z,78.81
2022-09-25T11:49:27.957Z,79.14
2022-09-25T11:52:33.527Z,77.72
2022-09-25T11:55:28.819Z,78.58
2022-09-25T12:01:40.530Z,77.50
2022-09-25T12:04:46.623Z,79.34
2022-09-25T12:07:32.599Z,77.84
2022-09-25T12:10:51.587Z,78.63
2022-09-25T12:13:32.237Z,76.34
2022-09-25T12:16:23.303Z,78.18
2022-09-25T12:19:29.603Z,77.51
2022-09-25T12:22:38.185Z,76.82
2022-09-25T12:25:27.355Z,76.96
2022-09-25T12:28:01.196Z,77.55
2022-09-25T12:30:57.163Z,75.45
2022-09-25T12:33:32.509Z,77.17
2022-09-25T12:36:15.127Z,76.10
2022-09-25T12:38:56.130Z,75.47
2022-09-25T12:41:30.507Z,74.43
2022-09-25T12:44:35.763Z,75.60
2022-09-25T12:47:37.591Z,74.83
2022-09-25T12:50:13.334Z,74.96
2022-09-25T12:53:09.418Z,76.58
2022-09-25T12:55:42.376Z,76.69
2022-09-25T12:58:24.432Z,74.99
2022-09-25T13:01:03.982Z,75.88
2022-09-25T13:04:23.097Z,75.16
2022-09-25T13:07:04.041Z,73.59
2022-09-25T13:09:46.148Z,74.68
2022-09-25T13:12:36.940Z,76.87
2022-09-25T13:15:35.317Z,76.61
2022-09-25T13:18:04.357Z,77.01
2022-09-25T13:20:57.979Z,76.28
2022-09-25T13:23:40.657Z,77.16
2022-09-25T13:26:16.840Z,75.83
2022-09-25T13:28:55.178Z,74.62
2022-09-25T13:31:28.547Z,77.79
2022-09-25T13:34:12.382Z,78.55
2022-09-25T13:36:46.427Z,75.61
2022-09-25T13:39:46.590Z,72.71
2022-09-25T13:42:44.050Z,73.65
2022-09-25T13:45:32.557Z,75.57
2022-09-25T13:48:12.630Z,77.56
2022-09-25T13:50:45.293Z,76.22
2022-09-25T13:53:21.127Z,76.75
2022-09-25T13:56:13.771Z,78.33
2022-09-25T13:59:00.758Z,77.28
2022-09-25T14:01:40.200Z,78.72
2022-09-25T14:04:36.253Z,77.65
2022-09-25T14:07:19.551Z,76.14
2022-09-25T14:09:53.865Z,77.37
2022-09-25T14:12:46.114Z,72.37
2022-09-25T14:15:35.520Z,73.49
2022-09-25T14:18:08.391Z,74.37
2022-09-25T14:20:40.611Z,75.20
2022-09-25T14:23:20.754Z,75.29
2022-09-25T14:25:47.984Z,73.90
2022-09-25T14:28:30.137Z,74.69
2022-09-25T14:31:22.437Z,76.98
2022-09-25T14:34:17.566Z,76.43
2022-09-25T14:37:26.637Z,77.50
2022-09-25T14:40:33.446Z,79.27
2022-09-25T14:43:49.674Z,76.97
2022-09-25T14:46:20.192Z,78.62
2022-09-25T14:48:59.071Z,79.27
2022-09-25T14:51:41.559Z,79.83
2022-09-25T14:54:09.633Z,78.26
2022-09-25T14:56:37.517Z,79.76
2022-09-25T14:59:15.884Z,79.26
2022-09-25T15:01:49.511Z,80.10
2022-09-25T15:04:45.740Z,82.13
2022-09-25T15:07:19.503Z,82.10
2022-09-25T15:09:48.532Z,78.10
2022-09-25T15:12:26.936Z,79.81
2022-09-25T15:15:14.942Z,80.15
2022-09-25T15:17:54.729Z,80.40
2022-09-25T15:20:24.024Z,80.45
2022-09-25T15:22:57.115Z,80.00
2022-09-25T15:25:39.524Z,81.30
2022-09-25T15:28:08.513Z,80.63
2022-09-25T15:30:37.618Z,81.91
2022-09-25T15:33:04.556Z,82.67
2022-09-25T15:35:31.249Z,82.85
2022-09-25T15:38:12.907Z,83.05
2022-09-25T15:40:41.389Z,82.09
2022-09-25T15:43:13.948Z,82.21
2022-09-25T15:45:57.814Z,82.89
2022-09-25T15:48:36.974Z,82.65
2022-09-25T15:51:14.202Z,82.09
2022-09-25T15:53:44.274Z,83.87
2022-09-25T15:56:33.900Z,84.62
2022-09-25T15:59:14.429Z,85.46
2022-09-25T16:02:00.547Z,86.03
2022-09-25T16:04:46.336Z,86.64
2022-09-25T16:07:31.725Z,86.56
2022-09-25T16:10:03.311Z,86.77
2022-09-25T16:12:36.056Z,86.89
2022-09-25T16:15:40.551Z,87.19
2022-09-25T16:18:32.421Z,86.40
2022-09-25T16:21:24.005Z,86.88
2022-09-25T16:23:56.293Z,87.65
2022-09-25T16:26:25.628Z,88.81
2022-09-25T16:29:08.435Z,89.64
2022-09-25T16:31:36.529Z,90.38
2022-09-25T16:34:04.693Z,90.02
2022-09-25T16:36:42.942Z,90.41
2022-09-25T16:39:24.701Z,91.33
2022-09-25T16:41:51.817Z,91.91
2022-09-25T16:44:34.879Z,92.58
2022-09-25T16:47:21.227Z,93.33
2022-09-25T16:49:49.398Z,95.48
2022-09-25T16:52:20.858Z,96.54
2022-09-25T16:54:53.136Z,97.20
2022-09-25T16:57:29.630Z,98.00
2022-09-25T16:59:56.431Z,97.94
2022-09-25T17:02:38.502Z,98.28
2022-09-25T17:05:20.923Z,98.97
2022-09-25T17:07:49.878Z,99.93
2022-09-25T17:10:23.881Z,100.00
2022-09-25T17:12:53.919Z,100.00
2022-09-25T17:15:27.504Z,100.00
2022-09-25T17:17:55.193Z,100.00
2022-09-25T17:20:24.356Z,100.00
2022-09-25T17:22:54.591Z,100.00
2022-09-25T17:25:29.704Z,100.00
2022-09-25T17:27:57.606Z,100.00
2022-09-25T17:30:24.136Z,100.00
2022-09-25T17:32:51.485Z,100.00
2022-09-25T17:35:35.019Z,100.00
2022-09-25T17:38:01.802Z,100.00
2022-09-25T17:40:30.494Z,100.00
2022-09-25T17:42:57.383Z,100.00
2022-09-25T17:45:35.822Z,100.00
2022-09-25T17:48:02.979Z,100.00
2022-09-25T17:50:31.485Z,100.00
2022-09-25T17:52:59.090Z,100.00
2022-09-25T17:55:25.798Z,100.00
2022-09-25T17:57:52.381Z,100.00
2022-09-25T18:00:19.213Z,100.00
2022-09-25T18:02:45.966Z,100.00
2022-09-25T18:05:18.322Z,100.00
2022-09-25T18:07:45.154Z,100.00
2022-09-25T18:10:14.128Z,100.00
2022-09-25T18:12:41.191Z,100.00
2022-09-25T18:15:10.350Z,100.00
2022-09-25T18:17:37.114Z,100.00
2022-09-25T18:20:23.089Z,100.00
2022-09-25T18:22:49.696Z,100.00
2022-09-25T18:25:16.713Z,100.00
2022-09-25T18:27:44.045Z,100.00
2022-09-25T18:30:18.644Z,100.00
2022-09-25T18:32:45.420Z,100.00
2022-09-25T18:35:14.255Z,100.00
2022-09-25T18:37:40.887Z,100.00
2022-09-25T18:40:08.718Z,100.00
2022-09-25T18:42:35.502Z,100.00
2022-09-25T18:45:02.102Z,100.00
2022-09-25T18:47:28.949Z,100.00
2022-09-25T18:49:55.599Z,100.00
2022-09-25T18:52:22.540Z,100.00
2022-09-25T18:54:49.289Z,100.00
2022-09-25T18:57:16.350Z,100.00
2022-09-25T18:59:43.183Z,100.00
2022-09-25T19:02:29.705Z,100.00
2022-09-25T19:04:58.077Z,100.00
2022-09-25T19:07:27.158Z,100.00
2022-09-25T19:09:54.225Z,100.00
2022-09-25T19:12:21.408Z,100.00
2022-09-25T19:14:48.458Z,100.00
2022-09-25T19:17:16.043Z,100.00
2022-09-25T19:19:43.971Z,100.00
2022-09-25T19:22:20.757Z,100.00
2022-09-25T19:24:48.509Z,100.00
2022-09-25T19:27:17.376Z,100.00
2022-09-25T19:29:47.491Z,100.00
2022-09-25T19:32:16.076Z,100.00
2022-09-25T19:34:43.581Z,100.00
2022-09-25T19:37:10.692Z,100.00
2022-09-25T19:39:56.397Z,100.00
2022-09-25T19:42:27.131Z,100.00
2022-09-25T19:44:56.446Z,100.00
2022-09-25T19:47:23.641Z,100.00
2022-09-25T19:49:50.222Z,100.00
2022-09-25T19:52:22.383Z,100.00
2022-09-25T19:54:49.047Z,100.00
2022-09-25T19:57:15.712Z,100.00
2022-09-25T19:59:42.340Z,100.00
2022-09-25T20:02:09.929Z,100.00
2022-09-25T20:04:36.771Z,100.00
2022-09-25T20:07:03.593Z,100.00
2022-09-25T20:09:30.441Z,100.00
2022-09-25T20:11:57.012Z,100.00
2022-09-25T20:14:25.617Z,100.00
2022-09-25T20:16:53.993Z,100.00
2022-09-25T20:19:21.679Z,100.00
2022-09-25T20:21:48.777Z,100.00
2022-09-25T20:24:15.608Z,100.00
2022-09-25T20:26:42.226Z,100.00
2022-09-25T20:29:12.218Z,100.00
2022-09-25T20:31:41.326Z,100.00
2022-09-25T20:34:11.649Z,100.00
2022-09-25T20:36:39.130Z,100.00
2022-09-25T20:39:06.264Z,100.00
2022-09-25T20:41:33.403Z,100.00
2022-09-25T20:44:03.690Z,100.00
2022-09-25T20:46:32.272Z,100.00
2022-09-25T20:48:59.865Z,100.00
2022-09-25T20:51:31.861Z,100.00
2022-09-25T20:54:00.699Z,100.00
2022-09-25T20:56:29.218Z,100.00
2022-09-25T20:58:57.348Z,100.00
2022-09-25T21:01:36.490Z,100.00
2022-09-25T21:04:05.859Z,100.00
2022-09-25T21:06:34.207Z,100.00
2022-09-25T21:09:03.489Z,100.00
2022-09-25T21:11:32.339Z,100.00
2022-09-25T21:14:02.513Z,100.00
2022-09-25T21:16:30.820Z,100.00
2022-09-25T21:19:04.201Z,100.00
2022-09-25T21:21:32.166Z,100.00
2022-09-25T21:23:59.457Z,100.00
2022-09-25T21:26:28.240Z,100.00
2022-09-25T21:28:57.353Z,100.00
2022-09-25T21:31:27.522Z,100.00
2022-09-25T21:33:56.062Z,100.00
2022-09-25T21:36:23.648Z,100.00
2022-09-25T21:38:50.561Z,100.00
2022-09-25T21:41:19.661Z,100.00
2022-09-25T21:43:46.934Z,100.00
2022-09-25T21:46:18.719Z,100.00
2022-09-25T21:48:51.107Z,100.00
2022-09-25T21:51:19.698Z,100.00
2022-09-25T21:53:46.800Z,100.00
2022-09-25T21:56:17.222Z,100.00
2022-09-25T21:58:45.066Z,100.00
2022-09-25T22:01:36.080Z,100.00
2022-09-25T22:04:04.378Z,100.00
2022-09-25T22:06:37.348Z,100.00
2022-09-25T22:09:10.335Z,100.00
2022-09-25T22:11:38.052Z,100.00
2022-09-25T22:14:05.896Z,100.00
2022-09-25T22:16:35.831Z,100.00
2022-09-25T22:19:12.536Z,100.00
2022-09-25T22:21:40.530Z,100.00
2022-09-25T22:24:07.835Z,100.00
2022-09-25T22:26:37.373Z,100.00
2022-09-25T22:29:04.225Z,100.00
2022-09-25T22:31:32.844Z,100.00
2022-09-25T22:34:02.218Z,100.00
2022-09-25T22:36:29.037Z,100.00
2022-09-25T22:38:56.387Z,100.00
2022-09-25T22:41:22.974Z,100.00
2022-09-25T22:43:51.619Z,100.00
2022-09-25T22:46:18.873Z,100.00
2022-09-25T22:48:45.499Z,100.00
2022-09-25T22:51:14.896Z,100.00
2022-09-25T22:53:42.833Z,100.00
2022-09-25T22:56:12.462Z,100.00
2022-09-25T22:58:39.497Z,100.00
2022-09-25T23:01:14.815Z,100.00
2022-09-25T23:03:41.430Z,100.00
2022-09-25T23:06:08.489Z,100.00
2022-09-25T23:08:35.238Z,100.00
2022-09-25T23:11:07.512Z,100.00
2022-09-25T23:13:35.315Z,100.00
2022-09-25T23:16:07.395Z,100.00
2022-09-25T23:18:35.979Z,100.00
2022-09-25T23:21:03.189Z,100.00
2022-09-25T23:23:29.758Z,100.00
2022-09-25T23:26:01.879Z,100.00
2022-09-25T23:28:28.466Z,100.00
2022-09-25T23:30:55.306Z,100.00
2022-09-25T23:33:21.922Z,100.00
2022-09-25T23:35:48.466Z,100.00
2022-09-25T23:38:15.254Z,100.00
2022-09-25T23:40:41.893Z,100.00
2022-09-25T23:43:08.676Z,100.00
2022-09-25T23:45:35.302Z,100.00
2022-09-25T23:48:02.410Z,100.00
2022-09-25T23:50:29.298Z,100.00
2022-09-25T23:52:56.027Z,100.00
2022-09-25T23:55:22.775Z,100.00
2022-09-25T23:57:49.315Z,100.00
